createdAt,value
2022-10-03T00:00:53.628Z,9.90
2022-10-03T00:01:53.715Z,9.88
2022-10-03T00:02:53.742Z,9.96
2022-10-03T00:03:53.702Z,9.93
2022-10-03T00:04:53.729Z,9.82
2022-10-03T00:05:53.754Z,9.92
2022-10-03T00:06:53.781Z,9.82
2022-10-03T00:07:53.803Z,9.71
2022-10-03T00:08:53.831Z,9.72
2022-10-03T00:09:53.854Z,9.74
2022-10-03T00:10:53.881Z,9.75
2022-10-03T00:11:53.907Z,9.78
2022-10-03T00:12:53.935Z,9.81
2022-10-03T00:13:53.976Z,9.63
2022-10-03T00:14:53.985Z,9.64
2022-10-03T00:15:54.083Z,9.70
2022-10-03T00:16:54.034Z,9.71
2022-10-03T00:17:54.059Z,9.64
2022-10-03T00:18:54.086Z,9.57
2022-10-03T00:19:54.107Z,9.62
2022-10-03T00:20:54.136Z,9.60
2022-10-03T00:21:54.160Z,9.62
2022-10-03T00:22:54.186Z,9.67
2022-10-03T00:23:54.210Z,9.62
2022-10-03T00:24:54.237Z,9.66
2022-10-03T00:25:54.261Z,9.60
2022-10-03T00:26:54.288Z,9.62
2022-10-03T00:27:54.361Z,9.63
2022-10-03T00:28:54.345Z,9.57
2022-10-03T00:29:54.379Z,9.59
2022-10-03T00:30:54.476Z,9.53
2022-10-03T00:31:54.461Z,9.59
2022-10-03T00:32:57.061Z,9.62
2022-10-03T00:33:54.462Z,9.56
2022-10-03T00:34:54.491Z,9.63
2022-10-03T00:35:54.513Z,9.56
2022-10-03T00:36:54.538Z,9.50
2022-10-03T00:37:54.569Z,9.50
2022-10-03T00:38:54.594Z,9.48
2022-10-03T00:39:54.612Z,9.52
2022-10-03T00:40:54.640Z,9.44
2022-10-03T00:41:54.664Z,9.48
2022-10-03T00:42:54.690Z,9.42
2022-10-03T00:43:54.712Z,9.39
2022-10-03T00:44:54.740Z,9.38
2022-10-03T00:45:54.786Z,9.30
2022-10-03T00:46:54.922Z,9.34
2022-10-03T00:47:54.815Z,9.35
2022-10-03T00:48:54.838Z,9.30
2022-10-03T00:49:54.869Z,9.37
2022-10-03T00:50:54.890Z,9.27
2022-10-03T00:51:54.916Z,9.35
2022-10-03T00:52:54.941Z,9.32
2022-10-03T00:53:54.965Z,9.30
2022-10-03T00:54:54.991Z,9.23
2022-10-03T00:55:55.017Z,9.26
2022-10-03T00:56:55.039Z,9.26
2022-10-03T00:57:55.067Z,9.17
2022-10-03T00:58:55.091Z,9.20
2022-10-03T00:59:55.117Z,9.26
2022-10-03T01:00:55.180Z,9.24
2022-10-03T01:01:55.251Z,9.27
2022-10-03T01:02:55.191Z,9.11
2022-10-03T01:03:55.217Z,9.12
2022-10-03T01:04:55.240Z,9.08
2022-10-03T01:05:55.272Z,9.03
2022-10-03T01:06:55.293Z,9.14
2022-10-03T01:07:55.318Z,9.16
2022-10-03T01:09:42.900Z,9.03
2022-10-03T01:10:42.927Z,9.09
2022-10-03T01:11:43.230Z,9.01
2022-10-03T01:12:42.978Z,9.05
2022-10-03T01:13:43.005Z,9.01
2022-10-03T01:14:43.027Z,8.97
2022-10-03T01:15:43.124Z,8.94
2022-10-03T01:16:43.078Z,8.97
2022-10-03T01:17:43.119Z,8.98
2022-10-03T01:18:43.127Z,8.90
2022-10-03T01:19:43.149Z,9.00
2022-10-03T01:20:43.175Z,9.01
2022-10-03T01:21:43.198Z,8.98
2022-10-03T01:22:43.226Z,9.00
2022-10-03T01:23:43.249Z,8.97
2022-10-03T01:24:43.276Z,8.89
2022-10-03T01:25:43.302Z,9.00
2022-10-03T01:26:43.325Z,9.00
2022-10-03T01:27:43.348Z,8.92
2022-10-03T01:28:43.377Z,8.89
2022-10-03T01:29:43.399Z,8.89
2022-10-03T01:30:43.425Z,8.79
2022-10-03T01:31:43.937Z,8.79
2022-10-03T01:32:43.474Z,8.77
2022-10-03T01:33:43.516Z,8.85
2022-10-03T01:34:43.524Z,8.76
2022-10-03T01:35:43.548Z,8.77
2022-10-03T01:36:43.573Z,8.77
2022-10-03T01:37:43.596Z,8.71
2022-10-03T01:38:43.623Z,8.69
2022-10-03T01:39:43.647Z,8.69
2022-10-03T01:40:43.673Z,8.68
2022-10-03T01:41:43.698Z,8.72
2022-10-03T01:42:43.723Z,8.71
2022-10-03T01:43:43.747Z,8.72
2022-10-03T01:44:43.773Z,8.69
2022-10-03T01:45:43.795Z,8.77
2022-10-03T01:46:43.924Z,8.64
2022-10-03T01:47:43.845Z,8.58
2022-10-03T01:48:43.874Z,8.65
2022-10-03T01:49:43.912Z,8.67
2022-10-03T01:50:43.921Z,8.61
2022-10-03T01:51:43.942Z,8.69
2022-10-03T01:52:43.970Z,8.64
2022-10-03T01:53:43.993Z,8.69
2022-10-03T01:54:44.020Z,8.64
2022-10-03T01:55:44.043Z,8.69
2022-10-03T01:56:44.069Z,8.62
2022-10-03T01:57:44.091Z,8.68
2022-10-03T01:58:44.119Z,8.68
2022-10-03T01:59:44.142Z,8.64
2022-10-03T02:00:44.191Z,8.64
2022-10-03T02:01:44.259Z,8.65
2022-10-03T02:02:44.220Z,8.79
2022-10-03T02:03:44.242Z,8.60
2022-10-03T02:04:44.266Z,8.67
2022-10-03T02:05:44.309Z,8.58
2022-10-03T02:06:44.332Z,8.72
2022-10-03T02:07:44.341Z,8.71
2022-10-03T02:08:44.366Z,8.67
2022-10-03T02:09:44.390Z,8.69
2022-10-03T02:10:44.418Z,8.62
2022-10-03T02:11:44.439Z,8.69
2022-10-03T02:12:44.466Z,8.65
2022-10-03T02:13:44.488Z,8.69
2022-10-03T02:14:44.515Z,8.65
2022-10-03T02:15:44.606Z,8.67
2022-10-03T02:16:44.564Z,8.68
2022-10-03T02:17:44.588Z,8.62
2022-10-03T02:18:44.614Z,8.61
2022-10-03T02:19:44.637Z,8.60
2022-10-03T02:20:44.664Z,8.60
2022-10-03T02:21:44.704Z,8.47
2022-10-03T02:22:44.715Z,8.44
2022-10-03T02:23:44.735Z,8.43
2022-10-03T02:24:44.761Z,8.43
2022-10-03T02:25:44.786Z,8.46
2022-10-03T02:26:44.813Z,8.49
2022-10-03T02:27:44.835Z,8.50
2022-10-03T02:28:44.862Z,8.42
2022-10-03T02:29:44.884Z,8.44
2022-10-03T02:30:44.910Z,8.49
2022-10-03T02:31:44.994Z,8.39
2022-10-03T02:32:44.960Z,8.43
2022-10-03T02:33:44.983Z,8.44
2022-10-03T02:34:45.011Z,8.43
2022-10-03T02:35:45.033Z,8.46
2022-10-03T02:36:45.060Z,8.44
2022-10-03T02:37:45.102Z,8.36
2022-10-03T02:38:45.113Z,8.36
2022-10-03T02:39:45.131Z,8.35
2022-10-03T02:40:45.158Z,8.43
2022-10-03T02:41:45.181Z,8.35
2022-10-03T02:42:45.207Z,8.34
2022-10-03T02:43:45.232Z,8.32
2022-10-03T02:44:45.257Z,8.39
2022-10-03T02:45:45.312Z,8.40
2022-10-03T02:46:45.309Z,8.40
2022-10-03T02:47:45.329Z,8.35
2022-10-03T02:48:45.355Z,8.32
2022-10-03T02:49:45.379Z,8.31
2022-10-03T02:50:45.405Z,8.34
2022-10-03T02:51:45.427Z,8.29
2022-10-03T02:52:45.454Z,8.35
2022-10-03T02:53:45.497Z,8.31
2022-10-03T02:54:45.503Z,8.24
2022-10-03T02:55:45.529Z,8.24
2022-10-03T02:56:45.553Z,8.22
2022-10-03T02:57:45.575Z,8.24
2022-10-03T02:58:45.602Z,8.19
2022-10-03T02:59:45.625Z,8.31
2022-10-03T03:00:45.704Z,8.26
2022-10-03T03:01:45.738Z,8.21
2022-10-03T03:02:45.703Z,8.17
2022-10-03T03:03:45.723Z,8.16
2022-10-03T03:04:45.750Z,8.14
2022-10-03T03:05:45.773Z,8.19
2022-10-03T03:06:45.799Z,8.19
2022-10-03T03:07:45.821Z,8.14
2022-10-03T03:08:45.848Z,8.16
2022-10-03T03:09:45.892Z,8.07
2022-10-03T03:10:45.896Z,8.17
2022-10-03T03:11:45.919Z,8.17
2022-10-03T03:12:45.945Z,8.11
2022-10-03T03:13:45.970Z,8.24
2022-10-03T03:14:45.996Z,8.26
2022-10-03T03:15:46.017Z,8.13
2022-10-03T03:16:46.072Z,7.98
2022-10-03T03:17:46.067Z,7.96
2022-10-03T03:18:46.095Z,7.98
2022-10-03T03:19:46.116Z,8.01
2022-10-03T03:20:46.141Z,7.99
2022-10-03T03:21:46.167Z,8.04
2022-10-03T03:22:46.192Z,7.99
2022-10-03T03:23:46.214Z,8.01
2022-10-03T03:24:46.240Z,7.99
2022-10-03T03:25:46.283Z,7.99
2022-10-03T03:26:46.290Z,8.03
2022-10-03T03:27:46.312Z,8.13
2022-10-03T03:28:46.338Z,8.06
2022-10-03T03:29:46.362Z,8.28
2022-10-03T03:30:46.388Z,8.26
2022-10-03T03:31:46.485Z,8.11
2022-10-03T03:32:46.437Z,8.21
2022-10-03T03:33:46.460Z,8.24
2022-10-03T03:34:46.485Z,8.25
2022-10-03T03:35:46.514Z,8.32
2022-10-03T03:36:46.557Z,8.34
2022-10-03T03:37:46.557Z,8.34
2022-10-03T03:38:46.584Z,8.43
2022-10-03T03:39:46.607Z,8.49
2022-10-03T03:40:46.637Z,8.46
2022-10-03T03:41:46.673Z,8.47
2022-10-03T03:42:46.683Z,8.50
2022-10-03T03:43:46.708Z,8.60
2022-10-03T03:44:46.731Z,8.58
2022-10-03T03:45:46.839Z,8.62
2022-10-03T03:46:46.781Z,8.67
2022-10-03T03:47:46.803Z,8.67
2022-10-03T03:48:46.831Z,8.62
2022-10-03T03:49:46.853Z,8.69
2022-10-03T03:50:46.882Z,8.68
2022-10-03T03:51:46.902Z,8.60
2022-10-03T03:52:46.927Z,8.67
2022-10-03T03:53:46.952Z,8.65
2022-10-03T03:54:46.985Z,8.64
2022-10-03T03:55:47.001Z,8.60
2022-10-03T03:56:47.025Z,8.60
2022-10-03T03:57:47.069Z,8.64
2022-10-03T03:58:47.074Z,8.54
2022-10-03T03:59:47.096Z,8.44
2022-10-03T04:00:47.173Z,8.53
2022-10-03T04:01:47.154Z,8.50
2022-10-03T04:02:47.173Z,8.50
2022-10-03T04:03:47.196Z,8.49
2022-10-03T04:04:47.223Z,8.44
2022-10-03T04:05:47.247Z,8.39
2022-10-03T04:06:47.273Z,8.39
2022-10-03T04:07:47.295Z,8.28
2022-10-03T04:08:47.325Z,8.34
2022-10-03T04:09:47.344Z,8.36
2022-10-03T04:10:47.371Z,8.28
2022-10-03T04:11:47.393Z,8.25
2022-10-03T04:12:47.419Z,8.19
2022-10-03T04:13:47.462Z,8.11
2022-10-03T04:14:47.470Z,8.21
2022-10-03T04:15:47.492Z,8.24
2022-10-03T04:16:47.573Z,8.14
2022-10-03T04:17:47.541Z,8.11
2022-10-03T04:18:47.568Z,8.06
2022-10-03T04:19:47.590Z,8.19
2022-10-03T04:20:47.617Z,8.16
2022-10-03T04:21:47.652Z,8.17
2022-10-03T04:22:47.667Z,8.17
2022-10-03T04:23:47.688Z,8.28
2022-10-03T04:24:47.715Z,8.25
2022-10-03T04:25:47.739Z,8.24
2022-10-03T04:26:47.768Z,8.24
2022-10-03T04:27:47.860Z,8.28
2022-10-03T04:28:47.814Z,8.29
2022-10-03T04:29:47.855Z,8.36
2022-10-03T04:30:47.865Z,8.34
2022-10-03T04:31:47.974Z,8.31
2022-10-03T04:32:47.914Z,8.46
2022-10-03T04:33:47.936Z,8.43
2022-10-03T04:34:47.965Z,8.44
2022-10-03T04:35:47.986Z,8.46
2022-10-03T04:36:48.014Z,8.43
2022-10-03T04:37:48.043Z,8.53
2022-10-03T04:38:48.065Z,8.53
2022-10-03T04:39:48.083Z,8.54
2022-10-03T04:40:48.112Z,8.49
2022-10-03T04:41:48.683Z,8.60
2022-10-03T04:42:48.162Z,8.67
2022-10-03T04:43:48.190Z,8.62
2022-10-03T04:44:48.212Z,8.67
2022-10-03T04:45:48.294Z,8.62
2022-10-03T04:46:48.262Z,8.64
2022-10-03T04:47:48.289Z,8.68
2022-10-03T04:48:48.311Z,8.58
2022-10-03T04:49:48.335Z,8.62
2022-10-03T04:50:48.361Z,8.58
2022-10-03T04:51:52.008Z,8.62
2022-10-03T04:52:48.411Z,8.64
2022-10-03T04:53:48.434Z,8.67
2022-10-03T04:54:48.486Z,8.64
2022-10-03T04:55:48.482Z,8.72
2022-10-03T04:56:48.511Z,8.62
2022-10-03T04:57:48.533Z,8.68
2022-10-03T04:58:48.561Z,8.68
2022-10-03T04:59:48.583Z,8.68
2022-10-03T05:00:48.658Z,8.68
2022-10-03T05:01:48.694Z,8.62
2022-10-03T05:02:48.664Z,8.61
2022-10-03T05:03:48.681Z,8.46
2022-10-03T05:04:50.346Z,8.62
2022-10-03T05:05:48.731Z,8.49
2022-10-03T05:06:48.759Z,8.64
2022-10-03T05:07:48.781Z,8.50
2022-10-03T05:08:48.806Z,8.47
2022-10-03T05:09:48.830Z,8.43
2022-10-03T05:10:48.856Z,8.40
2022-10-03T05:11:48.879Z,8.35
2022-10-03T05:12:48.906Z,8.39
2022-10-03T05:13:48.930Z,8.32
2022-10-03T05:14:48.955Z,8.28
2022-10-03T05:15:48.978Z,8.32
2022-10-03T05:16:49.087Z,8.25
2022-10-03T05:17:49.056Z,8.26
2022-10-03T05:18:49.054Z,8.17
2022-10-03T05:19:49.083Z,8.28
2022-10-03T05:20:49.102Z,8.25
2022-10-03T05:21:49.125Z,8.22
2022-10-03T05:22:49.156Z,8.19
2022-10-03T05:23:49.174Z,8.17
2022-10-03T05:24:49.200Z,8.21
2022-10-03T05:25:49.226Z,8.21
2022-10-03T05:26:49.250Z,8.22
2022-10-03T05:27:49.304Z,8.25
2022-10-03T05:28:49.300Z,8.22
2022-10-03T05:29:49.328Z,8.24
2022-10-03T05:30:49.350Z,8.22
2022-10-03T05:31:49.467Z,8.25
2022-10-03T05:32:49.397Z,8.17
2022-10-03T05:33:49.445Z,8.26
2022-10-03T05:34:49.452Z,8.25
2022-10-03T05:35:49.475Z,8.22
2022-10-03T05:36:49.497Z,8.26
2022-10-03T05:37:49.526Z,8.19
2022-10-03T05:38:49.549Z,8.25
2022-10-03T05:39:49.573Z,8.25
2022-10-03T05:40:49.595Z,8.24
2022-10-03T05:42:05.107Z,8.22
2022-10-03T05:42:49.647Z,8.26
2022-10-03T05:43:49.675Z,8.19
2022-10-03T05:44:49.695Z,8.26
2022-10-03T05:45:49.846Z,8.34
2022-10-03T05:46:49.746Z,8.28
2022-10-03T05:47:49.770Z,8.31
2022-10-03T05:48:49.795Z,8.36
2022-10-03T05:49:49.839Z,8.36
2022-10-03T05:50:49.843Z,8.44
2022-10-03T05:51:49.870Z,8.50
2022-10-03T05:52:49.893Z,8.50
2022-10-03T05:53:49.921Z,8.49
2022-10-03T05:54:49.943Z,8.52
2022-10-03T05:55:49.969Z,8.50
2022-10-03T05:56:49.993Z,8.64
2022-10-03T05:57:50.017Z,8.60
2022-10-03T05:58:50.043Z,8.65
2022-10-03T05:59:50.069Z,8.62
2022-10-03T06:00:50.092Z,8.68
2022-10-03T06:01:50.164Z,8.68
2022-10-03T06:02:50.295Z,8.68
2022-10-03T06:03:50.167Z,8.79
2022-10-03T06:04:50.190Z,8.82
2022-10-03T06:05:50.234Z,8.82
2022-10-03T06:06:50.240Z,8.83
2022-10-03T06:07:50.266Z,8.85
2022-10-03T06:08:50.289Z,8.80
2022-10-03T06:09:50.316Z,8.82
2022-10-03T06:10:50.339Z,8.80
2022-10-03T06:11:50.364Z,8.79
2022-10-03T06:12:50.389Z,8.83
2022-10-03T06:13:50.415Z,8.74
2022-10-03T06:14:50.438Z,8.76
2022-10-03T06:15:50.507Z,8.77
2022-10-03T06:16:50.488Z,8.74
2022-10-03T06:17:50.515Z,8.79
2022-10-03T06:18:50.537Z,8.76
2022-10-03T06:19:50.567Z,8.76
2022-10-03T06:20:50.587Z,8.68
2022-10-03T06:21:50.635Z,8.67
2022-10-03T06:22:50.637Z,8.68
2022-10-03T06:23:50.663Z,8.72
2022-10-03T06:24:50.689Z,8.64
2022-10-03T06:25:50.713Z,8.72
2022-10-03T06:26:50.737Z,8.79
2022-10-03T06:27:50.835Z,8.79
2022-10-03T06:28:50.790Z,8.72
2022-10-03T06:29:50.813Z,8.68
2022-10-03T06:30:50.892Z,8.67
2022-10-03T06:31:50.861Z,8.68
2022-10-03T06:32:50.885Z,8.69
2022-10-03T06:33:50.912Z,8.74
2022-10-03T06:34:50.937Z,8.79
2022-10-03T06:35:50.964Z,8.74
2022-10-03T06:36:51.391Z,8.76
2022-10-03T06:37:51.040Z,8.74
2022-10-03T06:38:51.239Z,8.79
2022-10-03T06:39:51.062Z,8.82
2022-10-03T06:40:51.086Z,8.87
2022-10-03T06:41:51.112Z,8.89
2022-10-03T06:42:51.204Z,8.97
2022-10-03T06:43:51.362Z,9.08
2022-10-03T06:45:51.284Z,9.29
2022-10-03T06:47:51.262Z,9.50
2022-10-03T06:48:51.288Z,9.66
2022-10-03T06:49:51.314Z,9.77
2022-10-03T06:50:51.340Z,9.74
2022-10-03T06:51:51.364Z,9.74
2022-10-03T06:52:51.389Z,9.82
2022-10-03T06:53:51.434Z,9.82
2022-10-03T06:54:51.439Z,9.85
2022-10-03T06:55:51.466Z,9.85
2022-10-03T06:56:51.489Z,9.88
2022-10-03T06:57:51.518Z,9.88
2022-10-03T06:58:51.543Z,9.92
2022-10-03T06:59:51.571Z,9.95
2022-10-03T07:00:51.592Z,9.88
2022-10-03T07:01:51.636Z,9.95
2022-10-03T07:02:51.664Z,9.96
2022-10-03T07:03:51.673Z,9.92
2022-10-03T07:04:51.695Z,9.95
2022-10-03T07:05:51.925Z,10.11
2022-10-03T07:06:51.748Z,10.03
2022-10-03T07:07:51.774Z,10.05
2022-10-03T07:09:51.842Z,10.08
2022-10-03T07:10:51.853Z,10.18
2022-10-03T07:11:51.876Z,10.23
2022-10-03T07:12:51.904Z,10.35
2022-10-03T07:13:51.929Z,10.41
2022-10-03T07:14:51.957Z,10.33
2022-10-03T07:16:14.290Z,10.35
2022-10-03T07:16:52.110Z,10.41
2022-10-03T07:17:52.034Z,10.44
2022-10-03T07:18:52.062Z,10.42
2022-10-03T07:19:52.085Z,10.54
2022-10-03T07:20:52.113Z,10.57
2022-10-03T07:21:52.135Z,10.41
2022-10-03T07:22:52.165Z,10.52
2022-10-03T07:23:52.190Z,10.58
2022-10-03T07:24:52.216Z,10.58
2022-10-03T07:25:52.269Z,10.58
2022-10-03T07:26:52.267Z,10.61
2022-10-03T07:27:52.323Z,10.58
2022-10-03T07:28:52.320Z,10.65
2022-10-03T07:29:52.344Z,10.66
2022-10-03T07:30:52.408Z,10.70
2022-10-03T07:31:52.421Z,10.76
2022-10-03T07:32:52.423Z,10.87
2022-10-03T07:33:52.448Z,10.88
2022-10-03T07:34:52.475Z,10.91
2022-10-03T07:35:52.507Z,11.08
2022-10-03T07:36:52.528Z,11.03
2022-10-03T07:37:52.551Z,11.12
2022-10-03T07:38:52.581Z,11.03
2022-10-03T07:39:52.604Z,11.15
2022-10-03T07:40:52.631Z,11.16
2022-10-03T07:41:52.677Z,11.16
2022-10-03T07:42:52.837Z,11.20
2022-10-03T07:43:52.709Z,11.24
2022-10-03T07:44:52.736Z,11.27
2022-10-03T07:45:52.793Z,11.35
2022-10-03T07:46:52.792Z,11.39
2022-10-03T07:47:52.814Z,11.45
2022-10-03T07:48:52.893Z,11.43
2022-10-03T07:49:52.866Z,11.63
2022-10-03T07:50:52.897Z,11.59
2022-10-03T07:51:52.920Z,11.63
2022-10-03T07:52:52.948Z,11.60
2022-10-03T07:53:52.974Z,11.67
2022-10-03T07:54:53.001Z,11.76
2022-10-03T07:55:53.024Z,11.79
2022-10-03T07:56:53.053Z,11.88
2022-10-03T07:57:53.097Z,12.05
2022-10-03T07:58:53.106Z,12.08
2022-10-03T07:59:53.132Z,12.28
2022-10-03T08:00:53.159Z,12.43
2022-10-03T08:01:53.186Z,12.71
2022-10-03T08:02:53.277Z,12.80
2022-10-03T08:03:53.357Z,12.98
2022-10-03T08:04:53.315Z,13.14
2022-10-03T08:05:53.292Z,13.14
2022-10-03T08:06:53.319Z,13.28
2022-10-03T08:07:53.348Z,13.50
2022-10-03T08:08:53.375Z,13.65
2022-10-03T08:09:53.401Z,13.66
2022-10-03T08:10:53.437Z,13.79
2022-10-03T08:11:53.454Z,13.81
2022-10-03T08:12:53.484Z,13.78
2022-10-03T08:13:53.531Z,13.73
2022-10-03T08:14:53.542Z,13.84
2022-10-03T08:15:53.598Z,13.91
2022-10-03T08:16:53.593Z,14.02
2022-10-03T08:17:53.619Z,14.03
2022-10-03T08:18:53.654Z,14.02
2022-10-03T08:19:53.677Z,13.87
2022-10-03T08:20:53.705Z,13.95
2022-10-03T08:21:53.835Z,13.99
2022-10-03T08:22:53.766Z,14.01
2022-10-03T08:23:53.790Z,14.16
2022-10-03T08:24:53.817Z,14.20
2022-10-03T08:25:53.844Z,14.34
2022-10-03T08:26:53.876Z,14.49
2022-10-03T08:27:53.986Z,14.61
2022-10-03T08:28:53.933Z,14.66
2022-10-03T08:29:53.978Z,14.70
2022-10-03T08:30:54.073Z,14.63
2022-10-03T08:31:54.015Z,14.74
2022-10-03T08:32:54.043Z,14.63
2022-10-03T08:33:54.070Z,14.74
2022-10-03T08:34:54.103Z,14.70
2022-10-03T08:35:54.127Z,14.79
2022-10-03T08:36:54.158Z,14.74
2022-10-03T08:37:54.186Z,14.82
2022-10-03T08:38:54.216Z,14.70
2022-10-03T08:39:54.242Z,14.64
2022-10-03T08:40:54.274Z,14.63
2022-10-03T08:41:54.301Z,14.82
2022-10-03T08:42:54.331Z,14.82
2022-10-03T08:43:54.357Z,14.79
2022-10-03T08:44:54.387Z,14.90
2022-10-03T08:45:54.433Z,15.00
2022-10-03T08:46:54.532Z,15.07
2022-10-03T08:47:54.473Z,15.12
2022-10-03T08:48:54.506Z,15.30
2022-10-03T08:49:54.532Z,15.31
2022-10-03T08:50:54.565Z,15.60
2022-10-03T08:51:54.591Z,15.62
2022-10-03T08:52:54.620Z,15.63
2022-10-03T08:53:54.649Z,15.58
2022-10-03T08:54:54.682Z,15.63
2022-10-03T08:55:54.707Z,15.75
2022-10-03T08:56:54.737Z,15.74
2022-10-03T08:57:54.765Z,15.70
2022-10-03T08:58:54.796Z,15.80
2022-10-03T08:59:54.824Z,15.77
2022-10-03T09:00:54.873Z,15.75
2022-10-03T09:01:55.058Z,15.75
2022-10-03T09:03:28.237Z,15.74
2022-10-03T09:03:55.003Z,15.60
2022-10-03T09:04:54.973Z,15.55
2022-10-03T09:05:54.999Z,15.56
2022-10-03T09:07:17.684Z,15.56
2022-10-03T09:07:55.057Z,15.63
2022-10-03T09:08:55.089Z,15.56
2022-10-03T09:09:55.121Z,15.56
2022-10-03T09:10:55.147Z,15.55
2022-10-03T09:11:55.175Z,15.63
2022-10-03T09:12:55.211Z,15.60
2022-10-03T09:13:55.236Z,15.74
2022-10-03T09:14:55.266Z,15.86
2022-10-03T09:15:55.361Z,15.98
2022-10-03T09:16:55.327Z,15.98
2022-10-03T09:17:55.370Z,16.06
2022-10-03T09:18:55.386Z,16.11
2022-10-03T09:19:55.413Z,16.07
2022-10-03T09:20:55.443Z,16.17
2022-10-03T09:21:55.470Z,16.13
2022-10-03T09:22:55.503Z,16.14
2022-10-03T09:23:55.529Z,16.13
2022-10-03T09:24:55.560Z,15.95
2022-10-03T09:25:55.588Z,15.99
2022-10-03T09:26:55.621Z,15.83
2022-10-03T09:27:55.677Z,15.58
2022-10-03T09:28:55.678Z,15.60
2022-10-03T09:29:55.710Z,15.63
2022-10-03T09:30:55.785Z,15.71
2022-10-03T09:31:55.792Z,15.74
2022-10-03T09:32:55.796Z,15.81
2022-10-03T09:33:55.845Z,15.88
2022-10-03T09:34:55.855Z,15.83
2022-10-03T09:35:55.883Z,15.92
2022-10-03T09:36:55.917Z,16.08
2022-10-03T09:37:56.045Z,16.14
2022-10-03T09:38:55.975Z,16.36
2022-10-03T09:39:56.002Z,16.37
2022-10-03T09:40:56.039Z,16.40
2022-10-03T09:41:56.062Z,16.33
2022-10-03T09:42:56.094Z,16.42
2022-10-03T09:43:56.124Z,16.40
2022-10-03T09:44:56.162Z,16.42
2022-10-03T09:45:56.183Z,16.55
2022-10-03T09:46:56.243Z,16.48
2022-10-03T09:47:56.242Z,16.40
2022-10-03T09:48:56.271Z,16.42
2022-10-03T09:49:56.341Z,16.44
2022-10-03T09:50:56.332Z,16.42
2022-10-03T09:51:56.361Z,16.32
2022-10-03T09:52:56.390Z,16.11
2022-10-03T09:53:56.420Z,16.08
2022-10-03T09:54:56.449Z,15.98
2022-10-03T09:55:56.479Z,16.07
2022-10-03T09:56:56.507Z,16.14
2022-10-03T09:57:56.539Z,16.18
2022-10-03T09:58:56.568Z,16.21
2022-10-03T09:59:56.596Z,16.25
2022-10-03T10:00:56.667Z,16.14
2022-10-03T10:01:56.656Z,16.29
2022-10-03T10:02:56.683Z,16.18
2022-10-03T10:03:56.778Z,16.30
2022-10-03T10:04:56.911Z,16.29
2022-10-03T10:05:56.793Z,16.45
2022-10-03T10:06:56.801Z,16.49
2022-10-03T10:07:56.831Z,16.39
2022-10-03T10:08:56.858Z,16.44
2022-10-03T10:09:56.890Z,16.47
2022-10-03T10:10:56.921Z,16.48
2022-10-03T10:11:56.948Z,16.54
2022-10-03T10:12:56.975Z,16.59
2022-10-03T10:14:10.464Z,16.65
2022-10-03T10:14:57.036Z,16.85
2022-10-03T10:15:57.114Z,16.97
2022-10-03T10:16:57.094Z,17.10
2022-10-03T10:17:57.122Z,17.06
2022-10-03T10:18:57.154Z,17.09
2022-10-03T10:19:57.183Z,17.21
2022-10-03T10:20:57.208Z,17.09
2022-10-03T10:21:57.263Z,17.05
2022-10-03T10:22:57.268Z,17.10
2022-10-03T10:23:57.298Z,16.92
2022-10-03T10:24:57.329Z,16.80
2022-10-03T10:25:57.357Z,16.88
2022-10-03T10:26:57.386Z,17.10
2022-10-03T10:27:57.457Z,17.17
2022-10-03T10:28:57.443Z,17.24
2022-10-03T10:29:57.475Z,17.32
2022-10-03T10:30:57.572Z,17.35
2022-10-03T10:31:57.534Z,17.52
2022-10-03T10:32:57.562Z,17.58
2022-10-03T10:33:57.594Z,17.60
2022-10-03T10:34:57.625Z,17.55
2022-10-03T10:35:57.653Z,17.46
2022-10-03T10:36:57.678Z,17.52
2022-10-03T10:37:57.730Z,17.46
2022-10-03T10:38:57.740Z,17.43
2022-10-03T10:39:57.771Z,17.52
2022-10-03T10:40:59.826Z,17.40
2022-10-03T10:41:57.829Z,17.39
2022-10-03T10:42:57.858Z,17.42
2022-10-03T10:43:57.891Z,17.27
2022-10-03T10:44:57.916Z,17.25
2022-10-03T10:45:57.947Z,17.24
2022-10-03T10:46:58.059Z,17.15
2022-10-03T10:47:58.009Z,16.97
2022-10-03T10:49:02.838Z,16.91
2022-10-03T10:49:58.067Z,16.87
2022-10-03T10:50:58.094Z,16.74
2022-10-03T10:51:58.125Z,16.74
2022-10-03T10:52:58.154Z,16.90
2022-10-03T10:53:58.202Z,17.05
2022-10-03T10:54:58.216Z,17.10
2022-10-03T10:55:58.245Z,17.28
2022-10-03T10:56:58.274Z,17.35
2022-10-03T10:57:58.307Z,17.49
2022-10-03T10:58:58.357Z,17.73
2022-10-03T10:59:58.363Z,17.84
2022-10-03T11:00:58.412Z,18.01
2022-10-03T11:01:58.422Z,18.05
2022-10-03T11:02:58.451Z,18.06
2022-10-03T11:03:58.481Z,18.19
2022-10-03T11:04:58.601Z,17.94
2022-10-03T11:05:58.541Z,17.99
2022-10-03T11:06:58.571Z,18.03
2022-10-03T11:07:58.600Z,17.99
2022-10-03T11:08:58.629Z,17.88
2022-10-03T11:09:58.690Z,17.84
2022-10-03T11:10:58.689Z,17.87
2022-10-03T11:11:58.721Z,17.77
2022-10-03T11:12:58.750Z,17.87
2022-10-03T11:13:58.784Z,17.92
2022-10-03T11:14:58.809Z,17.90
2022-10-03T11:15:58.871Z,17.73
2022-10-03T11:16:58.875Z,17.76
2022-10-03T11:17:58.900Z,17.79
2022-10-03T11:18:58.928Z,17.60
2022-10-03T11:19:58.959Z,17.54
2022-10-03T11:20:58.989Z,17.50
2022-10-03T11:21:59.019Z,17.63
2022-10-03T11:23:04.382Z,17.76
2022-10-03T11:23:59.080Z,17.71
2022-10-03T11:24:59.107Z,17.80
2022-10-03T11:26:02.384Z,17.86
2022-10-03T11:26:59.166Z,17.96
2022-10-03T11:27:59.275Z,18.01
2022-10-03T11:28:59.234Z,17.99
2022-10-03T11:29:59.256Z,18.16
2022-10-03T11:31:01.932Z,18.26
2022-10-03T11:31:59.313Z,18.44
2022-10-03T11:32:59.343Z,18.45
2022-10-03T11:33:59.372Z,18.56
2022-10-03T11:34:59.400Z,18.49
2022-10-03T11:35:59.433Z,18.63
2022-10-03T11:36:59.459Z,18.39
2022-10-03T11:37:59.491Z,18.42
2022-10-03T11:38:59.518Z,18.54
2022-10-03T11:40:00.965Z,18.49
2022-10-03T11:41:00.789Z,18.47
2022-10-03T11:42:03.658Z,18.51
2022-10-03T11:42:59.630Z,18.60
2022-10-03T11:44:01.938Z,18.65
2022-10-03T11:44:59.689Z,18.63
2022-10-03T11:45:59.744Z,18.61
2022-10-03T11:46:59.747Z,18.75
2022-10-03T11:47:59.777Z,18.81
2022-10-03T11:48:59.807Z,18.78
2022-10-03T11:49:59.838Z,18.96
2022-10-03T11:50:59.868Z,18.82
2022-10-03T11:51:59.896Z,18.90
2022-10-03T11:52:59.928Z,18.87
2022-10-03T11:54:19.203Z,18.79
2022-10-03T11:54:59.986Z,18.75
2022-10-03T11:56:00.016Z,18.82
2022-10-03T11:57:00.047Z,18.84
2022-10-03T11:58:00.111Z,18.82
2022-10-03T11:59:00.103Z,18.94
2022-10-03T12:00:00.194Z,18.76
2022-10-03T12:01:00.163Z,18.82
2022-10-03T12:02:00.240Z,18.79
2022-10-03T12:03:00.358Z,18.68
2022-10-03T12:04:00.253Z,18.60
2022-10-03T12:05:00.284Z,18.61
2022-10-03T12:06:00.314Z,18.54
2022-10-03T12:07:00.547Z,18.34
2022-10-03T12:08:00.374Z,18.26
2022-10-03T12:09:00.412Z,18.27
2022-10-03T12:10:00.436Z,18.23
2022-10-03T12:11:00.478Z,18.36
2022-10-03T12:33:22.980Z,18.06
2022-10-03T12:34:22.994Z,18.01
2022-10-03T12:35:23.022Z,17.95
2022-10-03T12:36:23.052Z,17.88
2022-10-03T12:37:23.079Z,18.01
2022-10-03T12:38:23.112Z,17.88
2022-10-03T12:39:23.151Z,17.76
2022-10-03T12:40:23.171Z,17.74
2022-10-03T12:41:23.198Z,17.83
2022-10-03T12:42:23.230Z,17.74
2022-10-03T12:43:23.258Z,17.74
2022-10-03T12:44:23.287Z,17.63
2022-10-03T12:45:23.317Z,17.62
2022-10-03T12:46:23.374Z,17.55
2022-10-03T12:47:37.542Z,17.52
2022-10-03T12:48:23.406Z,17.52
2022-10-03T12:49:23.452Z,17.63
2022-10-03T12:50:23.465Z,17.65
2022-10-03T12:51:23.496Z,17.69
2022-10-03T12:52:23.524Z,17.63
2022-10-03T12:53:23.551Z,17.84
2022-10-03T12:54:26.650Z,17.81
2022-10-03T12:55:23.611Z,17.84
2022-10-03T12:56:23.641Z,17.88
2022-10-03T12:57:23.678Z,18.05
2022-10-03T12:58:23.702Z,18.06
2022-10-03T12:59:23.728Z,18.06
2022-10-03T13:00:23.759Z,18.13
2022-10-03T13:01:23.879Z,18.20
2022-10-03T13:02:23.909Z,18.23
2022-10-03T13:03:23.859Z,18.26
2022-10-03T13:04:23.878Z,18.21
2022-10-03T13:05:23.962Z,18.31
2022-10-03T13:06:38.810Z,18.31
2022-10-03T13:07:23.969Z,18.23
2022-10-03T13:08:23.998Z,18.26
2022-10-03T13:09:24.025Z,18.17
2022-10-03T13:10:24.057Z,18.16
2022-10-03T13:11:24.085Z,18.11
2022-10-03T13:12:27.652Z,18.06
2022-10-03T13:13:24.147Z,18.03
2022-10-03T13:14:24.174Z,18.02
2022-10-03T13:15:24.203Z,17.92
2022-10-03T13:16:24.334Z,17.79
2022-10-03T13:17:24.262Z,17.87
2022-10-03T13:18:24.294Z,17.86
2022-10-03T13:19:24.322Z,17.83
2022-10-03T13:20:24.351Z,17.77
2022-10-03T13:21:45.024Z,17.77
2022-10-03T13:22:24.411Z,17.77
2022-10-03T13:23:24.439Z,17.69
2022-10-03T13:24:24.469Z,17.74
2022-10-03T13:25:24.497Z,17.69
2022-10-03T13:26:24.530Z,17.69
2022-10-03T13:27:24.567Z,17.69
2022-10-03T13:28:24.642Z,17.63
2022-10-03T13:29:24.616Z,17.57
2022-10-03T13:30:24.647Z,17.54
2022-10-03T13:31:24.746Z,17.55
2022-10-03T13:32:24.706Z,17.54